createdAt,value
2024-05-09T00:00:50.908Z,14.61
2024-05-09T00:01:50.844Z,14.59
2024-05-09T00:02:50.694Z,14.58
2024-05-09T00:03:50.686Z,14.58
2024-05-09T00:04:50.883Z,14.55
2024-05-09T00:05:50.673Z,14.55
2024-05-09T00:06:50.623Z,14.55
2024-05-09T00:07:50.629Z,14.58
2024-05-09T00:08:50.620Z,14.52
2024-05-09T00:09:50.629Z,14.48
2024-05-09T00:10:50.698Z,14.44
2024-05-09T00:11:50.677Z,14.43
2024-05-09T00:12:50.571Z,14.40
2024-05-09T00:13:50.596Z,14.40
2024-05-09T00:14:50.798Z,14.40
2024-05-09T00:15:50.537Z,14.41
2024-05-09T00:16:50.540Z,14.41
2024-05-09T00:17:50.610Z,14.40
2024-05-09T00:18:50.578Z,14.38
2024-05-09T00:19:50.524Z,14.41
2024-05-09T00:20:50.489Z,14.37
2024-05-09T00:21:50.462Z,14.38
2024-05-09T00:22:50.475Z,14.37
2024-05-09T00:23:50.437Z,14.34
2024-05-09T00:24:50.417Z,14.31
2024-05-09T00:25:50.629Z,14.31
2024-05-09T00:26:50.405Z,14.33
2024-05-09T00:27:50.378Z,14.36
2024-05-09T00:28:50.481Z,14.33
2024-05-09T00:29:50.378Z,14.34
2024-05-09T00:30:50.382Z,14.33
2024-05-09T00:31:50.435Z,14.33
2024-05-09T00:32:50.476Z,14.26
2024-05-09T00:33:50.437Z,14.19
2024-05-09T00:34:50.305Z,14.19
2024-05-09T00:35:50.338Z,14.23
2024-05-09T00:36:50.297Z,14.22
2024-05-09T00:37:50.354Z,14.22
2024-05-09T00:38:50.276Z,14.15
2024-05-09T00:39:50.269Z,14.15
2024-05-09T00:40:50.262Z,14.16
2024-05-09T00:41:50.244Z,14.19
2024-05-09T00:42:50.269Z,14.19
2024-05-09T00:43:50.285Z,14.15
2024-05-09T00:44:50.232Z,14.16
2024-05-09T00:45:50.182Z,14.16
2024-05-09T00:46:50.205Z,14.15
2024-05-09T00:47:50.535Z,14.15
2024-05-09T00:48:50.346Z,14.12
2024-05-09T00:49:50.256Z,14.11
2024-05-09T00:50:50.256Z,14.11
2024-05-09T00:51:50.283Z,14.07
2024-05-09T00:52:50.178Z,14.07
2024-05-09T00:53:50.135Z,14.04
2024-05-09T00:54:50.139Z,14.04
2024-05-09T00:55:50.150Z,14.08
2024-05-09T00:56:50.089Z,14.05
2024-05-09T00:57:50.112Z,14.07
2024-05-09T00:58:50.116Z,14.07
2024-05-09T00:59:50.055Z,14.04
2024-05-09T01:00:50.108Z,14.03
2024-05-09T01:01:50.103Z,14.01
2024-05-09T01:02:50.188Z,14.01
2024-05-09T01:03:51.333Z,14.01
2024-05-09T01:04:50.185Z,13.98
2024-05-09T01:05:50.137Z,14.00
2024-05-09T01:06:49.964Z,13.97
2024-05-09T01:07:50.013Z,13.98
2024-05-09T01:08:49.952Z,13.94
2024-05-09T01:09:49.942Z,13.97
2024-05-09T01:10:50.076Z,13.95
2024-05-09T01:11:50.165Z,13.97
2024-05-09T01:12:49.897Z,13.94
2024-05-09T01:13:49.938Z,13.91
2024-05-09T01:14:49.886Z,13.85
2024-05-09T01:15:49.890Z,13.85
2024-05-09T01:16:49.930Z,13.83
2024-05-09T01:17:50.162Z,13.85
2024-05-09T01:18:49.941Z,13.83
2024-05-09T01:19:49.853Z,13.82
2024-05-09T01:20:49.864Z,13.80
2024-05-09T01:21:49.819Z,13.80
2024-05-09T01:22:49.927Z,13.79
2024-05-09T01:23:49.885Z,13.79
2024-05-09T01:24:49.841Z,13.78
2024-05-09T01:25:49.818Z,13.76
2024-05-09T01:26:49.762Z,13.78
2024-05-09T01:27:49.812Z,13.78
2024-05-09T01:28:49.783Z,13.76
2024-05-09T01:29:49.733Z,13.79
2024-05-09T01:30:49.716Z,13.76
2024-05-09T01:31:49.791Z,13.75
2024-05-09T01:32:50.104Z,13.71
2024-05-09T01:33:49.896Z,13.76
2024-05-09T01:34:49.705Z,13.73
2024-05-09T01:35:49.762Z,13.70
2024-05-09T01:36:49.642Z,13.67
2024-05-09T01:37:49.695Z,13.70
2024-05-09T01:38:49.652Z,13.67
2024-05-09T01:39:49.630Z,13.68
2024-05-09T01:40:49.633Z,13.65
2024-05-09T01:41:49.680Z,13.65
2024-05-09T01:42:49.589Z,13.64
2024-05-09T01:43:49.592Z,13.64
2024-05-09T01:44:49.583Z,13.62
2024-05-09T01:45:49.543Z,13.61
2024-05-09T01:46:49.553Z,13.61
2024-05-09T01:47:49.655Z,13.61
2024-05-09T01:48:49.887Z,13.55
2024-05-09T01:49:49.593Z,13.55
2024-05-09T01:50:49.548Z,13.55
2024-05-09T01:51:49.523Z,13.50
2024-05-09T01:52:49.514Z,13.54
2024-05-09T01:53:49.476Z,13.55
2024-05-09T01:54:49.446Z,13.55
2024-05-09T01:55:49.510Z,13.54
2024-05-09T01:56:49.436Z,13.50
2024-05-09T01:57:49.445Z,13.50
2024-05-09T01:58:49.428Z,13.47
2024-05-09T01:59:49.463Z,13.49
2024-05-09T02:00:49.492Z,13.46
2024-05-09T02:01:56.688Z,13.46
2024-05-09T02:02:50.512Z,13.45
2024-05-09T02:03:49.800Z,13.45
2024-05-09T02:04:49.408Z,13.40
2024-05-09T02:05:49.442Z,13.40
2024-05-09T02:06:49.364Z,13.36
2024-05-09T02:07:49.376Z,13.31
2024-05-09T02:08:49.284Z,13.33
2024-05-09T02:09:49.300Z,13.31
2024-05-09T02:10:50.046Z,13.36
2024-05-09T02:11:49.324Z,13.33
2024-05-09T02:12:49.264Z,13.33
2024-05-09T02:13:49.312Z,13.31
2024-05-09T02:14:49.242Z,13.30
2024-05-09T02:15:49.243Z,13.28
2024-05-09T02:16:49.305Z,13.27
2024-05-09T02:17:49.390Z,13.27
2024-05-09T02:18:49.375Z,13.27
2024-05-09T02:19:49.269Z,13.27
2024-05-09T02:20:49.233Z,13.24
2024-05-09T02:21:49.165Z,13.27
2024-05-09T02:22:49.200Z,13.26
2024-05-09T02:23:49.258Z,13.24
2024-05-09T02:24:49.119Z,13.24
2024-05-09T02:25:49.144Z,13.26
2024-05-09T02:26:49.159Z,13.24
2024-05-09T02:27:49.125Z,13.24
2024-05-09T02:28:49.114Z,13.24
2024-05-09T02:29:49.098Z,13.24
2024-05-09T02:30:49.074Z,13.21
2024-05-09T02:31:49.326Z,13.19
2024-05-09T02:32:49.175Z,13.17
2024-05-09T02:33:49.364Z,13.17
2024-05-09T02:34:49.031Z,13.16
2024-05-09T02:35:49.018Z,13.17
2024-05-09T02:36:48.996Z,13.12
2024-05-09T02:37:49.021Z,13.12
2024-05-09T02:38:48.970Z,13.09
2024-05-09T02:39:48.963Z,13.09
2024-05-09T02:40:49.075Z,13.05
2024-05-09T02:41:48.944Z,13.08
2024-05-09T02:42:48.928Z,13.05
2024-05-09T02:43:48.943Z,13.05
2024-05-09T02:44:48.910Z,13.08
2024-05-09T02:45:48.920Z,13.05
2024-05-09T02:46:48.907Z,13.03
2024-05-09T02:47:49.594Z,13.06
2024-05-09T02:48:49.034Z,12.99
2024-05-09T02:49:48.903Z,13.01
2024-05-09T02:50:48.879Z,13.02
2024-05-09T02:51:48.833Z,13.01
2024-05-09T02:52:48.862Z,13.01
2024-05-09T02:53:48.894Z,12.99
2024-05-09T02:54:48.810Z,13.01
2024-05-09T02:55:48.943Z,12.94
2024-05-09T02:56:48.767Z,12.95
2024-05-09T02:57:48.786Z,12.91
2024-05-09T02:58:48.787Z,12.91
2024-05-09T02:59:48.730Z,12.93
2024-05-09T03:00:48.774Z,12.87
2024-05-09T03:01:48.840Z,12.88
2024-05-09T03:02:48.849Z,12.86
2024-05-09T03:03:48.892Z,12.86
2024-05-09T03:04:48.809Z,12.84
2024-05-09T03:05:48.756Z,12.81
2024-05-09T03:06:48.668Z,12.78
2024-05-09T03:07:48.660Z,12.81
2024-05-09T03:08:48.655Z,12.81
2024-05-09T03:09:48.633Z,12.81
2024-05-09T03:10:48.622Z,12.80
2024-05-09T03:11:48.754Z,12.81
2024-05-09T03:12:48.613Z,12.83
2024-05-09T03:13:48.646Z,12.81
2024-05-09T03:14:48.576Z,12.78
2024-05-09T03:15:48.565Z,12.80
2024-05-09T03:16:48.656Z,12.75
2024-05-09T03:17:48.747Z,12.72
2024-05-09T03:18:48.648Z,12.70
2024-05-09T03:19:48.681Z,12.66
2024-05-09T03:20:48.518Z,12.65
2024-05-09T03:21:48.485Z,12.63
2024-05-09T03:22:48.557Z,12.61
2024-05-09T03:23:48.520Z,12.57
2024-05-09T03:24:48.458Z,12.54
2024-05-09T03:25:48.551Z,12.54
2024-05-09T03:26:48.459Z,12.53
2024-05-09T03:27:48.429Z,12.48
2024-05-09T03:28:48.444Z,12.44
2024-05-09T03:29:48.439Z,12.44
2024-05-09T03:30:48.436Z,12.43
2024-05-09T03:31:48.479Z,12.39
2024-05-09T03:32:48.656Z,12.37
2024-05-09T03:33:48.525Z,12.39
2024-05-09T03:34:48.407Z,12.36
2024-05-09T03:35:49.063Z,12.35
2024-05-09T03:36:48.359Z,12.35
2024-05-09T03:37:48.364Z,12.33
2024-05-09T03:38:48.304Z,12.30
2024-05-09T03:39:48.346Z,12.29
2024-05-09T03:40:49.323Z,12.28
2024-05-09T03:41:48.297Z,12.21
2024-05-09T03:42:48.276Z,12.23
2024-05-09T03:43:48.278Z,12.23
2024-05-09T03:44:48.267Z,12.20
2024-05-09T03:45:48.258Z,12.21
2024-05-09T03:46:48.267Z,12.20
2024-05-09T03:47:48.492Z,12.18
2024-05-09T03:48:48.288Z,12.21
2024-05-09T03:49:48.317Z,12.17
2024-05-09T03:50:48.425Z,12.17
2024-05-09T03:51:48.194Z,12.15
2024-05-09T03:52:48.244Z,12.14
2024-05-09T03:53:48.192Z,12.15
2024-05-09T03:54:48.159Z,12.15
2024-05-09T03:55:48.240Z,12.12
2024-05-09T03:56:48.119Z,12.14
2024-05-09T03:57:48.137Z,12.12
2024-05-09T03:58:48.132Z,12.10
2024-05-09T03:59:48.093Z,12.12
2024-05-09T04:00:48.146Z,12.08
2024-05-09T04:01:48.190Z,12.11
2024-05-09T04:02:48.109Z,12.12
2024-05-09T04:03:48.255Z,12.12
2024-05-09T04:04:48.155Z,12.14
2024-05-09T04:05:48.033Z,12.15
2024-05-09T04:06:48.040Z,12.11
2024-05-09T04:07:48.132Z,12.12
2024-05-09T04:08:48.109Z,12.11
2024-05-09T04:09:47.981Z,12.12
2024-05-09T04:10:48.032Z,12.15
2024-05-09T04:11:48.041Z,12.12
2024-05-09T04:12:47.959Z,12.12
2024-05-09T04:13:47.991Z,12.12
2024-05-09T04:14:47.943Z,12.15
2024-05-09T04:15:47.942Z,12.14
2024-05-09T04:16:47.980Z,12.15
2024-05-09T04:17:48.055Z,12.15
2024-05-09T04:18:48.030Z,12.15
2024-05-09T04:19:47.915Z,12.20
2024-05-09T04:20:47.943Z,12.18
2024-05-09T04:21:47.847Z,12.18
2024-05-09T04:22:47.926Z,12.18
2024-05-09T04:23:47.926Z,12.21
2024-05-09T04:24:47.799Z,12.20
2024-05-09T04:25:47.984Z,12.20
2024-05-09T04:26:47.803Z,12.20
2024-05-09T04:27:47.800Z,12.20
2024-05-09T04:28:47.835Z,12.21
2024-05-09T04:29:47.758Z,12.23
2024-05-09T04:30:47.750Z,12.23
2024-05-09T04:31:47.901Z,12.29
2024-05-09T04:32:47.853Z,12.30
2024-05-09T04:33:47.986Z,12.32
2024-05-09T04:34:47.738Z,12.35
2024-05-09T04:35:47.687Z,12.33
2024-05-09T04:36:47.698Z,12.36
2024-05-09T04:37:47.721Z,12.37
2024-05-09T04:38:47.701Z,12.37
2024-05-09T04:39:47.655Z,12.40
2024-05-09T04:40:47.715Z,12.40
2024-05-09T04:41:47.631Z,12.43
2024-05-09T04:42:47.679Z,12.44
2024-05-09T04:43:47.649Z,12.47
2024-05-09T04:44:47.584Z,12.48
2024-05-09T04:45:47.600Z,12.51
2024-05-09T04:46:47.660Z,12.50
2024-05-09T04:47:47.884Z,12.53
2024-05-09T04:48:47.648Z,12.54
2024-05-09T04:49:47.644Z,12.54
2024-05-09T04:50:47.561Z,12.57
2024-05-09T04:51:47.516Z,12.58
2024-05-09T04:52:47.552Z,12.61
2024-05-09T04:53:47.571Z,12.65
2024-05-09T04:54:47.494Z,12.63
2024-05-09T04:55:47.650Z,12.66
2024-05-09T04:56:47.497Z,12.69
2024-05-09T04:57:47.474Z,12.68
2024-05-09T04:58:47.561Z,12.73
2024-05-09T04:59:47.444Z,12.75
2024-05-09T05:00:47.627Z,12.73
2024-05-09T05:01:47.589Z,12.78
2024-05-09T05:02:47.620Z,12.78
2024-05-09T05:03:47.729Z,12.84
2024-05-09T05:04:47.568Z,12.87
2024-05-09T05:05:47.399Z,12.88
2024-05-09T05:06:47.390Z,12.90
2024-05-09T05:07:47.421Z,12.94
2024-05-09T05:08:47.349Z,12.94
2024-05-09T05:09:47.367Z,12.99
2024-05-09T05:10:48.430Z,13.02
2024-05-09T05:11:47.469Z,13.06
2024-05-09T05:12:47.288Z,13.08
2024-05-09T05:13:47.390Z,13.13
2024-05-09T05:14:47.306Z,13.20
2024-05-09T05:15:47.332Z,13.24
2024-05-09T05:16:47.328Z,13.30
2024-05-09T05:17:47.565Z,13.36
2024-05-09T05:18:47.302Z,13.40
2024-05-09T05:19:47.348Z,13.47
2024-05-09T05:20:47.291Z,13.57
2024-05-09T05:21:47.227Z,13.64
2024-05-09T05:22:47.238Z,13.68
2024-05-09T05:23:47.333Z,13.71
2024-05-09T05:24:47.187Z,13.76
2024-05-09T05:25:47.223Z,13.79
2024-05-09T05:26:47.187Z,13.83
2024-05-09T05:27:47.144Z,13.86
2024-05-09T05:28:47.193Z,13.87
2024-05-09T05:29:47.194Z,13.94
2024-05-09T05:30:47.117Z,13.98
2024-05-09T05:31:47.186Z,14.07
2024-05-09T05:32:47.283Z,14.16
2024-05-09T05:33:47.141Z,14.34
2024-05-09T05:34:47.167Z,14.55
2024-05-09T05:35:47.081Z,14.70
2024-05-09T05:36:47.035Z,14.81
2024-05-09T05:37:47.108Z,14.90
2024-05-09T05:38:47.064Z,15.02
2024-05-09T05:39:46.995Z,15.19
2024-05-09T05:40:47.032Z,15.35
2024-05-09T05:41:46.988Z,15.52
2024-05-09T05:42:46.972Z,15.57
2024-05-09T05:43:47.008Z,15.67
2024-05-09T05:44:46.958Z,15.81
2024-05-09T05:45:47.000Z,15.90
2024-05-09T05:46:47.102Z,16.06
2024-05-09T05:47:47.027Z,16.39
2024-05-09T05:48:47.029Z,16.72
2024-05-09T05:49:47.015Z,17.01
2024-05-09T05:50:47.009Z,17.23
2024-05-09T05:51:46.895Z,17.46
2024-05-09T05:52:46.935Z,17.57
2024-05-09T05:53:46.994Z,17.79
2024-05-09T05:54:46.872Z,17.97
2024-05-09T05:55:46.947Z,18.06
2024-05-09T05:56:46.914Z,18.15
2024-05-09T05:57:46.806Z,18.30
2024-05-09T05:58:47.045Z,18.41
2024-05-09T05:59:46.841Z,18.49
2024-05-09T06:00:46.840Z,18.55
2024-05-09T06:01:46.836Z,18.64
2024-05-09T06:02:47.042Z,18.74
2024-05-09T06:03:47.005Z,18.82
2024-05-09T06:04:47.024Z,18.88
2024-05-09T06:05:47.073Z,18.97
2024-05-09T06:06:46.708Z,19.12
2024-05-09T06:07:46.778Z,19.20
2024-05-09T06:08:47.056Z,19.30
2024-05-09T06:09:48.310Z,19.39
2024-05-09T06:10:46.823Z,19.48
2024-05-09T06:11:47.075Z,19.60
2024-05-09T06:12:46.664Z,19.70
2024-05-09T06:13:46.689Z,19.75
2024-05-09T06:14:46.653Z,19.81
2024-05-09T06:15:46.788Z,19.90
2024-05-09T06:16:46.697Z,19.97
2024-05-09T06:17:46.736Z,20.14
2024-05-09T06:18:46.814Z,20.19
2024-05-09T06:19:46.770Z,20.27
2024-05-09T06:20:46.675Z,20.33
2024-05-09T06:21:46.572Z,20.40
2024-05-09T06:22:46.556Z,20.49
2024-05-09T06:23:46.672Z,20.50
2024-05-09T06:24:46.539Z,20.53
2024-05-09T06:25:46.576Z,20.52
2024-05-09T06:26:46.578Z,20.52
2024-05-09T06:27:46.507Z,20.59
2024-05-09T06:28:46.523Z,20.64
2024-05-09T06:29:46.503Z,20.67
2024-05-09T06:30:46.486Z,20.70
2024-05-09T06:31:46.491Z,20.77
2024-05-09T06:32:46.576Z,20.86
2024-05-09T06:33:46.604Z,20.92
2024-05-09T06:34:46.581Z,21.01
2024-05-09T06:35:46.577Z,21.05
2024-05-09T06:36:46.394Z,21.17
2024-05-09T06:37:46.498Z,21.22
2024-05-09T06:38:46.505Z,21.23
2024-05-09T06:39:46.365Z,21.29
2024-05-09T06:40:46.424Z,21.40
2024-05-09T06:41:46.351Z,21.40
2024-05-09T06:42:46.332Z,21.48
2024-05-09T06:43:46.385Z,21.51
2024-05-09T06:44:46.362Z,21.53
2024-05-09T06:45:46.375Z,21.50
2024-05-09T06:46:46.373Z,21.47
2024-05-09T06:47:46.423Z,21.48
2024-05-09T06:48:46.569Z,21.50
2024-05-09T06:49:46.372Z,21.56
2024-05-09T06:50:46.301Z,21.62
2024-05-09T06:51:46.264Z,21.77
2024-05-09T06:52:46.272Z,21.81
2024-05-09T06:53:46.251Z,21.88
2024-05-09T06:54:46.202Z,21.89
2024-05-09T06:55:46.304Z,22.01
2024-05-09T06:56:46.194Z,22.04
2024-05-09T06:57:46.181Z,22.10
2024-05-09T06:58:46.219Z,22.14
2024-05-09T06:59:46.163Z,22.21
2024-05-09T07:00:46.251Z,22.12
2024-05-09T07:01:46.184Z,22.15
2024-05-09T07:02:46.399Z,22.16
2024-05-09T07:03:46.230Z,22.18
2024-05-09T07:04:46.148Z,22.28
2024-05-09T07:05:47.255Z,22.38
2024-05-09T07:06:46.075Z,22.51
2024-05-09T07:07:46.214Z,22.59
2024-05-09T07:08:47.395Z,22.70
2024-05-09T07:09:46.070Z,22.70
2024-05-09T07:10:46.386Z,22.77
2024-05-09T07:11:46.156Z,22.88
2024-05-09T07:12:46.103Z,23.01
2024-05-09T07:13:46.092Z,23.17
2024-05-09T07:14:46.102Z,23.25
2024-05-09T07:15:46.023Z,23.37
2024-05-09T07:16:46.072Z,23.44
2024-05-09T07:17:46.095Z,23.37
2024-05-09T07:18:46.164Z,23.34
2024-05-09T07:19:46.062Z,23.42
2024-05-09T07:20:46.333Z,23.49
2024-05-09T07:21:45.915Z,23.67
2024-05-09T07:22:45.976Z,23.79
2024-05-09T07:23:47.330Z,23.88
2024-05-09T07:24:45.870Z,24.00
2024-05-09T07:25:46.043Z,23.96
2024-05-09T07:26:45.953Z,24.01
2024-05-09T07:27:45.853Z,24.16
2024-05-09T07:28:45.950Z,24.24
2024-05-09T07:29:45.892Z,24.40
2024-05-09T07:30:46.191Z,24.61
2024-05-09T07:31:45.845Z,24.81
2024-05-09T07:32:45.892Z,24.94
2024-05-09T07:33:45.930Z,24.99
2024-05-09T07:34:45.782Z,25.14
2024-05-09T07:35:45.834Z,25.33
2024-05-09T07:36:45.755Z,25.51
2024-05-09T07:37:45.798Z,25.62
2024-05-09T07:38:45.884Z,25.70
2024-05-09T07:39:45.704Z,25.71
2024-05-09T07:40:45.818Z,25.78
2024-05-09T07:41:45.748Z,25.88
2024-05-09T07:42:45.688Z,25.99
2024-05-09T07:43:45.718Z,26.11
2024-05-09T07:44:45.672Z,26.22
2024-05-09T07:45:52.037Z,26.37
2024-05-09T07:47:48.521Z,26.46
2024-05-09T07:49:12.897Z,26.44
2024-05-09T07:53:17.357Z,26.89
2024-05-09T07:53:34.585Z,26.93
2024-05-09T07:53:50.608Z,27.00
2024-05-09T07:54:46.727Z,27.04
2024-05-09T07:55:45.661Z,27.15
2024-05-09T07:56:45.736Z,27.18
2024-05-09T07:57:45.629Z,27.29
2024-05-09T07:58:45.560Z,27.44
2024-05-09T07:59:45.504Z,27.55
2024-05-09T08:00:45.612Z,27.58
2024-05-09T08:01:45.612Z,27.61
2024-05-09T08:02:45.494Z,27.63
2024-05-09T08:03:45.846Z,27.71
2024-05-09T08:04:45.588Z,27.75
2024-05-09T08:05:45.574Z,27.88
2024-05-09T08:06:45.477Z,27.86
2024-05-09T08:07:45.434Z,27.79
2024-05-09T08:08:45.436Z,27.79
2024-05-09T08:09:45.480Z,27.88
2024-05-09T08:10:45.543Z,28.00
2024-05-09T08:11:45.464Z,28.12
2024-05-09T08:12:45.414Z,28.08
2024-05-09T08:13:45.375Z,28.12
2024-05-09T08:14:45.350Z,28.10
2024-05-09T08:15:45.508Z,28.23
2024-05-09T08:16:45.322Z,28.34
2024-05-09T08:17:45.354Z,28.43
2024-05-09T08:18:45.422Z,28.50
2024-05-09T08:19:45.368Z,28.68
2024-05-09T08:20:45.298Z,28.97
2024-05-09T08:21:45.278Z,29.09
2024-05-09T08:22:45.265Z,29.06
2024-05-09T08:23:45.239Z,28.94
2024-05-09T08:24:45.283Z,28.86
2024-05-09T08:25:45.234Z,28.82
2024-05-09T08:26:45.255Z,28.90
2024-05-09T08:27:45.300Z,29.06
2024-05-09T08:28:45.193Z,29.21
2024-05-09T08:29:45.284Z,29.37
2024-05-09T08:30:45.342Z,29.49
2024-05-09T08:31:45.215Z,29.58
2024-05-09T08:32:45.215Z,29.57
2024-05-09T08:33:45.430Z,29.68
2024-05-09T08:34:45.145Z,29.81
2024-05-09T08:35:45.104Z,29.81
2024-05-09T08:36:45.190Z,29.84
2024-05-09T08:37:45.133Z,29.95
2024-05-09T08:38:45.065Z,29.86
2024-05-09T08:39:45.102Z,29.96
2024-05-09T08:40:45.182Z,30.02
2024-05-09T08:41:45.032Z,29.99
2024-05-09T08:42:45.051Z,30.11
2024-05-09T08:43:45.024Z,30.20
2024-05-09T08:44:45.011Z,30.29
2024-05-09T08:45:45.625Z,30.35
2024-05-09T08:46:44.999Z,30.26
2024-05-09T08:47:45.163Z,30.26
2024-05-09T08:48:45.150Z,30.24
2024-05-09T08:49:44.954Z,30.32
2024-05-09T08:50:45.858Z,30.35
2024-05-09T08:51:44.972Z,30.36
2024-05-09T08:52:44.943Z,30.32
2024-05-09T08:53:44.920Z,30.32
2024-05-09T08:54:45.044Z,30.48
2024-05-09T08:55:44.984Z,30.44
2024-05-09T08:56:44.886Z,30.43
2024-05-09T08:57:44.963Z,30.55
2024-05-09T08:58:44.907Z,30.58
2024-05-09T08:59:44.840Z,30.59
2024-05-09T09:00:45.601Z,30.52
2024-05-09T09:01:45.249Z,30.58
2024-05-09T09:02:45.115Z,30.56
2024-05-09T09:03:44.975Z,30.62
2024-05-09T09:04:45.570Z,30.69
2024-05-09T09:05:44.818Z,30.78
2024-05-09T09:06:44.957Z,30.89
2024-05-09T09:07:44.785Z,31.04
2024-05-09T09:08:44.757Z,31.07
2024-05-09T09:09:44.777Z,31.13
2024-05-09T09:10:44.966Z,31.17
2024-05-09T09:11:44.914Z,31.29
2024-05-09T09:12:44.748Z,31.25
2024-05-09T09:13:44.719Z,31.18
2024-05-09T09:14:44.689Z,31.07
2024-05-09T09:15:44.807Z,30.77
2024-05-09T09:16:44.674Z,30.65
2024-05-09T09:17:44.741Z,30.51
2024-05-09T09:18:45.107Z,30.49
2024-05-09T09:19:44.688Z,30.71
2024-05-09T09:20:45.258Z,30.92
2024-05-09T09:21:44.703Z,31.04
2024-05-09T09:22:44.625Z,31.15
2024-05-09T09:23:44.624Z,31.36
2024-05-09T09:24:44.867Z,31.54
2024-05-09T09:25:44.590Z,31.78
2024-05-09T09:26:44.580Z,32.07
2024-05-09T09:27:44.589Z,32.30
2024-05-09T09:28:44.573Z,32.54
2024-05-09T09:29:44.580Z,32.78
2024-05-09T09:30:44.689Z,33.17
2024-05-09T09:31:44.505Z,33.60
2024-05-09T09:32:44.581Z,33.72
2024-05-09T09:33:44.662Z,33.73
2024-05-09T09:34:44.507Z,33.73
2024-05-09T09:35:44.498Z,33.79
2024-05-09T09:36:44.524Z,33.87
2024-05-09T09:37:44.453Z,33.87
2024-05-09T09:38:44.480Z,33.70
2024-05-09T09:39:48.781Z,33.45
2024-05-09T09:40:48.378Z,33.50
2024-05-09T09:41:45.421Z,33.40
2024-05-09T09:42:44.482Z,33.17
2024-05-09T09:43:44.401Z,33.42
2024-05-09T09:44:47.806Z,33.60
2024-05-09T09:45:45.433Z,33.82
2024-05-09T09:46:44.420Z,33.94
2024-05-09T09:47:44.604Z,34.00
2024-05-09T09:48:44.867Z,34.13
2024-05-09T09:49:44.584Z,34.38
2024-05-09T09:50:44.355Z,34.26
2024-05-09T09:51:44.553Z,34.02
2024-05-09T09:52:44.343Z,33.75
2024-05-09T09:53:44.356Z,33.81
2024-05-09T09:54:44.372Z,33.73
2024-05-09T09:55:44.588Z,34.04
2024-05-09T09:56:44.245Z,34.29
2024-05-09T09:57:44.287Z,34.46
2024-05-09T09:58:44.240Z,34.55
2024-05-09T09:59:44.229Z,34.46
2024-05-09T10:00:44.604Z,34.53
2024-05-09T10:01:44.294Z,34.18
2024-05-09T10:02:44.282Z,32.00
2024-05-09T10:03:44.314Z,30.52
2024-05-09T10:04:44.278Z,30.05
2024-05-09T10:05:46.506Z,31.05
2024-05-09T10:06:44.241Z,31.23
2024-05-09T10:07:44.153Z,29.94
2024-05-09T10:08:44.191Z,28.92
2024-05-09T10:09:44.197Z,30.16
2024-05-09T10:10:44.444Z,31.50
2024-05-09T10:11:49.172Z,32.35
2024-05-09T10:12:45.124Z,32.72
2024-05-09T10:13:44.082Z,32.31
2024-05-09T10:14:44.100Z,32.95
2024-05-09T10:15:44.099Z,33.36
2024-05-09T10:16:44.080Z,33.50
2024-05-09T10:17:44.193Z,33.65
2024-05-09T10:18:44.223Z,33.85
2024-05-09T10:19:44.057Z,34.02
2024-05-09T10:20:44.175Z,34.31
2024-05-09T10:21:44.077Z,34.76
2024-05-09T10:22:44.028Z,35.27
2024-05-09T10:23:44.049Z,35.64
2024-05-09T10:24:44.043Z,35.75
2024-05-09T10:25:44.014Z,35.79
2024-05-09T10:26:43.956Z,35.75
2024-05-09T10:27:44.006Z,35.63
2024-05-09T10:28:44.007Z,35.45
2024-05-09T10:29:43.928Z,35.23
2024-05-09T10:30:45.261Z,34.66
2024-05-09T10:31:44.117Z,34.11
2024-05-09T10:32:44.039Z,33.20
2024-05-09T10:33:44.007Z,31.59
2024-05-09T10:34:44.038Z,31.02
2024-05-09T10:35:43.894Z,31.14
2024-05-09T10:36:43.903Z,31.14
2024-05-09T10:37:43.854Z,31.15
2024-05-09T10:38:43.901Z,31.23
2024-05-09T10:39:43.869Z,31.26
2024-05-09T10:40:43.991Z,31.51
2024-05-09T10:41:43.794Z,31.70
2024-05-09T10:42:43.815Z,31.73
2024-05-09T10:43:43.787Z,31.72
2024-05-09T10:44:43.820Z,31.87
2024-05-09T10:45:43.827Z,32.15
2024-05-09T10:46:43.739Z,32.20
2024-05-09T10:47:43.951Z,32.38
2024-05-09T10:48:44.428Z,32.93
2024-05-09T10:49:43.743Z,33.36
2024-05-09T10:50:43.789Z,33.51
2024-05-09T10:51:43.738Z,33.72
2024-05-09T10:52:43.661Z,33.87
2024-05-09T10:53:43.668Z,34.37
2024-05-09T10:54:43.698Z,35.31
2024-05-09T10:55:43.638Z,34.07
2024-05-09T10:56:43.649Z,32.19
2024-05-09T10:57:43.638Z,31.95
2024-05-09T10:58:43.745Z,33.26
2024-05-09T10:59:43.587Z,32.81
2024-05-09T11:00:43.747Z,32.16
2024-05-09T11:01:43.751Z,32.37
2024-05-09T11:02:43.845Z,33.20
2024-05-09T11:03:43.749Z,32.20
2024-05-09T11:04:43.615Z,30.88
2024-05-09T11:05:43.798Z,30.10
2024-05-09T11:06:43.581Z,29.57
2024-05-09T11:07:43.521Z,29.18
2024-05-09T11:08:43.525Z,29.02
2024-05-09T11:09:43.531Z,28.92
2024-05-09T11:10:43.508Z,28.71
2024-05-09T11:11:43.551Z,28.55
2024-05-09T11:12:43.578Z,29.25
2024-05-09T11:13:43.446Z,30.69
2024-05-09T11:14:43.437Z,31.28
2024-05-09T11:15:43.462Z,31.64
2024-05-09T11:16:43.432Z,30.54
2024-05-09T11:17:43.554Z,30.26
2024-05-09T11:18:43.950Z,30.88
2024-05-09T11:19:43.482Z,30.31
2024-05-09T11:20:43.605Z,29.44
2024-05-09T11:21:43.447Z,29.30
2024-05-09T11:22:43.358Z,29.22
2024-05-09T11:23:43.345Z,28.94
2024-05-09T11:24:43.382Z,28.60
2024-05-09T11:25:43.312Z,28.33
2024-05-09T11:26:43.335Z,28.01
2024-05-09T11:27:43.299Z,27.66
2024-05-09T11:28:43.292Z,27.50
2024-05-09T11:29:43.274Z,27.45
2024-05-09T11:30:43.334Z,27.45
2024-05-09T11:31:43.318Z,27.61
2024-05-09T11:32:43.331Z,28.71
2024-05-09T11:33:43.493Z,30.92
2024-05-09T11:34:43.299Z,32.88
2024-05-09T11:35:43.199Z,34.14
2024-05-09T11:36:43.276Z,34.82
2024-05-09T11:37:43.198Z,35.94
2024-05-09T11:38:43.379Z,36.63
2024-05-09T11:39:43.174Z,33.88
2024-05-09T11:40:43.330Z,31.59
2024-05-09T11:41:43.175Z,30.23
2024-05-09T11:42:43.179Z,29.44
2024-05-09T11:43:43.126Z,29.18
2024-05-09T11:44:43.133Z,32.29
2024-05-09T11:45:43.158Z,34.73
2024-05-09T11:46:43.108Z,36.09
2024-05-09T11:47:43.174Z,36.99
2024-05-09T11:48:43.362Z,37.45
2024-05-09T11:49:43.109Z,37.91
2024-05-09T11:50:43.110Z,38.20
2024-05-09T11:51:43.112Z,38.58
2024-05-09T11:52:43.039Z,38.91
2024-05-09T11:53:43.021Z,39.11
2024-05-09T11:54:43.105Z,39.38
2024-05-09T11:55:43.007Z,39.45
2024-05-09T11:56:43.011Z,39.29
2024-05-09T11:57:43.033Z,39.29
2024-05-09T11:58:43.009Z,37.47
2024-05-09T11:59:42.976Z,34.56
2024-05-09T12:00:43.165Z,32.59
2024-05-09T12:01:43.109Z,31.37
2024-05-09T12:02:42.981Z,30.54
2024-05-09T12:03:43.189Z,29.94
2024-05-09T12:04:43.158Z,29.59
2024-05-09T12:05:43.286Z,29.32
2024-05-09T12:06:42.928Z,29.07
2024-05-09T12:07:42.899Z,28.84
2024-05-09T12:08:42.942Z,28.64
2024-05-09T12:09:42.887Z,28.47
2024-05-09T12:10:43.011Z,28.19
2024-05-09T12:11:42.884Z,28.09
2024-05-09T12:12:42.854Z,27.98
2024-05-09T12:13:42.815Z,27.88
2024-05-09T12:14:42.793Z,27.79
2024-05-09T12:15:42.883Z,27.75
2024-05-09T12:16:42.871Z,27.71
2024-05-09T12:17:42.805Z,27.64
2024-05-09T12:18:42.832Z,27.64
2024-05-09T12:19:42.810Z,27.55
2024-05-09T12:20:42.737Z,27.44
2024-05-09T12:21:42.805Z,27.43
2024-05-09T12:22:42.757Z,27.40
2024-05-09T12:23:42.716Z,27.37
2024-05-09T12:24:42.768Z,27.28
2024-05-09T12:25:42.714Z,27.25
2024-05-09T12:26:42.683Z,27.18
2024-05-09T12:27:42.735Z,27.15
2024-05-09T12:28:42.641Z,27.13
2024-05-09T12:29:42.661Z,27.13
2024-05-09T12:30:42.808Z,27.15
2024-05-09T12:31:42.614Z,27.18
2024-05-09T12:32:42.694Z,27.25
2024-05-09T12:33:42.767Z,27.33
2024-05-09T12:34:42.635Z,27.30
2024-05-09T12:35:45.275Z,27.11
2024-05-09T12:36:42.622Z,27.07
2024-05-09T12:37:42.546Z,26.98
2024-05-09T12:38:42.572Z,26.96
2024-05-09T12:39:42.567Z,27.01
2024-05-09T12:40:42.753Z,27.01
2024-05-09T12:41:42.532Z,27.13
2024-05-09T12:42:42.518Z,27.28
2024-05-09T12:43:42.547Z,27.43
2024-05-09T12:44:42.466Z,27.79
2024-05-09T12:45:42.597Z,28.94
2024-05-09T12:46:42.459Z,29.37
2024-05-09T12:47:42.512Z,29.43
2024-05-09T12:48:42.639Z,29.18
2024-05-09T12:49:42.495Z,29.10
2024-05-09T12:50:42.511Z,28.65
2024-05-09T12:51:42.431Z,28.13
2024-05-09T12:52:42.395Z,27.86
2024-05-09T12:53:42.384Z,27.76
2024-05-09T12:54:42.387Z,27.71
2024-05-09T12:55:48.757Z,27.55